Time;durP1;ratioP1;P1;durP2;ratioP2;P2;SDS_P1;SDS_P2;PMS_P1;PMS_P2;Temp;Humidity;BMP_temperature;BMP_pressure;BME280_temperature;BME280_humidity;BME280_pressure;Samples;Min_cycle;Max_cycle;Signal;HPM_P1;HPM_P2
2022/03/09 00:02:27;;;;;;;8.80;6.38;;;;;;;8.61;41.01;102093.00;5104349;28;20097;-60
2022/03/09 00:04:56;;;;;;;11.57;7.65;;;;;;;8.63;41.23;102102.53;5100930;28;20086;-61
2022/03/09 00:07:26;;;;;;;12.00;7.50;;;;;;;8.54;40.97;102084.84;5104315;28;20398;-61
2022/03/09 00:09:54;;;;;;;13.07;6.82;;;;;;;8.59;41.12;102098.53;5092531;28;20052;-61
2022/03/09 00:12:26;;;;;;;10.30;7.00;;;;;;;8.58;40.45;102110.25;5104029;28;20055;-62
2022/03/09 00:14:54;;;;;;;12.45;6.80;;;;;;;8.54;41.25;102094.72;5105528;28;20085;-62
2022/03/09 00:17:22;;;;;;;10.50;7.28;;;;;;;8.56;40.54;102098.91;5090391;28;20048;-62
2022/03/09 00:19:50;;;;;;;10.32;7.55;;;;;;;8.54;40.46;102105.44;5105529;28;20074;-62
2022/03/09 00:22:19;;;;;;;10.00;6.65;;;;;;;8.51;40.76;102103.94;5098009;28;20060;-61
2022/03/09 00:24:47;;;;;;;10.88;7.68;;;;;;;8.51;40.71;102111.16;5104066;28;20473;-61
2022/03/09 00:27:15;;;;;;;11.88;7.57;;;;;;;8.48;40.46;102106.97;5103681;28;20083;-61
2022/03/09 00:29:43;;;;;;;11.60;7.03;;;;;;;8.48;40.12;102104.31;5103428;28;20048;-62
2022/03/09 00:32:11;;;;;;;11.23;6.45;;;;;;;8.47;40.73;102106.16;5101781;28;20063;-61
2022/03/09 00:34:40;;;;;;;12.93;6.63;;;;;;;8.47;40.03;102111.50;5099105;28;20123;-61
2022/03/09 00:37:07;;;;;;;7.65;6.07;;;;;;;8.39;40.24;102103.53;5104168;28;20094;-61
2022/03/09 00:39:36;;;;;;;13.93;6.18;;;;;;;8.43;41.04;102109.34;5104596;28;20048;-62
2022/03/09 00:42:05;;;;;;;11.35;6.25;;;;;;;8.43;40.93;102112.03;5101890;28;20048;-61
2022/03/09 00:44:34;;;;;;;10.82;7.32;;;;;;;8.42;40.85;102113.03;5104534;28;20155;-60
2022/03/09 00:47:03;;;;;;;10.60;7.10;;;;;;;8.39;40.40;102106.19;5098023;28;20060;-61
2022/03/09 00:49:31;;;;;;;9.98;6.53;;;;;;;8.40;40.44;102110.53;5104608;28;20051;-62
2022/03/09 00:51:58;;;;;;;12.40;6.70;;;;;;;8.39;40.66;102110.72;5100137;28;20094;-61
2022/03/09 00:54:26;;;;;;;12.05;6.68;;;;;;;8.37;40.72;102102.88;5103778;28;20052;-60
2022/03/09 00:56:55;;;;;;;9.65;6.32;;;;;;;8.36;40.76;102111.06;5100423;28;20048;-61
2022/03/09 00:59:23;;;;;;;8.88;6.15;;;;;;;8.36;40.34;102100.34;5102062;28;20059;-61
2022/03/09 01:01:51;;;;;;;10.27;6.10;;;;;;;8.32;40.90;102110.56;5101107;28;20087;-61
2022/03/09 01:04:19;;;;;;;10.50;6.47;;;;;;;8.32;41.04;102107.88;5102912;28;20040;-61
2022/03/09 01:06:47;;;;;;;11.98;6.45;;;;;;;8.32;40.62;102112.41;5102303;28;20044;-61
2022/03/09 01:09:14;;;;;;;11.05;6.85;;;;;;;8.15;40.81;102096.41;5103843;28;20059;-61
2022/03/09 01:11:42;;;;;;;10.18;5.53;;;;;;;8.26;40.78;102118.47;5087984;28;20162;-62
2022/03/09 01:14:11;;;;;;;10.18;6.10;;;;;;;8.22;40.62;102095.72;5104287;28;20048;-61
2022/03/09 01:16:39;;;;;;;10.70;7.10;;;;;;;8.23;40.63;102114.28;5097652;28;20055;-62
2022/03/09 01:19:07;;;;;;;14.02;6.88;;;;;;;8.22;40.91;102109.09;5103487;28;20047;-61
2022/03/09 01:21:35;;;;;;;9.43;6.18;;;;;;;8.20;40.52;102106.59;5104030;28;20074;-61
2022/03/09 01:24:04;;;;;;;10.70;5.70;;;;;;;8.16;40.47;102102.59;5102146;28;20066;-61
2022/03/09 01:26:31;;;;;;;9.68;5.38;;;;;;;8.18;41.03;102113.16;5096918;28;20047;-62
2022/03/09 01:28:59;;;;;;;9.35;6.10;;;;;;;8.16;40.63;102106.13;5103499;28;20130;-62
2022/03/09 01:31:28;;;;;;;12.40;6.68;;;;;;;7.98;40.75;102089.47;5102069;28;20048;-61
2022/03/09 01:33:56;;;;;;;10.93;6.13;;;;;;;8.10;40.82;102109.50;5093964;28;20062;-61
2022/03/09 01:36:24;;;;;;;8.55;5.97;;;;;;;8.10;40.73;102111.34;5103313;28;20059;-62
2022/03/09 01:38:51;;;;;;;12.73;5.97;;;;;;;8.09;40.39;102107.84;5102303;28;20043;-61
2022/03/09 01:41:19;;;;;;;10.65;6.38;;;;;;;8.08;41.06;102111.53;5095107;28;20051;-61
2022/03/09 01:44:05;;;;;;;10.10;6.15;;;;;;;8.06;40.86;102102.00;5103292;28;20104;-62
2022/03/09 01:46:35;;;;;;;9.80;6.00;;;;;;;8.04;41.17;102096.81;5103665;28;20052;-61
2022/03/09 01:49:03;;;;;;;12.02;6.72;;;;;;;8.04;41.22;102102.16;5100718;28;20267;-61
2022/03/09 01:51:32;;;;;;;13.57;6.00;;;;;;;8.02;40.70;102104.19;5098292;28;20457;-61
2022/03/09 01:54:00;;;;;;;8.98;5.88;;;;;;;7.99;40.73;102112.56;5102529;28;20059;-61
2022/03/09 01:56:28;;;;;;;13.35;6.72;;;;;;;7.99;40.81;102106.38;5100526;28;20067;-61
2022/03/09 01:58:56;;;;;;;10.65;6.28;;;;;;;7.96;40.65;102096.84;5102339;28;20059;-62
2022/03/09 02:01:24;;;;;;;10.65;6.03;;;;;;;7.94;40.72;102088.16;5103029;28;20048;-62
2022/03/09 02:03:54;;;;;;;10.93;6.30;;;;;;;7.93;40.49;102097.19;5101904;28;20074;-62
2022/03/09 02:06:22;;;;;;;12.45;6.75;;;;;;;7.92;40.70;102097.38;5100202;28;20111;-62
2022/03/09 02:11:37;;;;;;;17.10;6.57;;;;;;;7.89;40.95;102097.72;5101860;28;20427;-62
2022/03/09 02:14:05;;;;;;;9.85;6.13;;;;;;;7.88;40.95;102090.69;5097661;28;20052;-62
2022/03/09 02:16:33;;;;;;;9.80;6.70;;;;;;;7.84;40.61;102091.03;5102500;28;20040;-62
2022/03/09 02:19:03;;;;;;;10.30;6.45;;;;;;;7.83;41.04;102099.25;5102692;28;20109;-62
2022/03/09 02:21:32;;;;;;;13.10;6.65;;;;;;;7.83;40.69;102099.25;5092696;28;20077;-62
2022/03/09 02:24:05;;;;;;;9.25;6.32;;;;;;;7.81;40.52;102101.25;5096258;28;20059;-62
2022/03/09 02:26:32;;;;;;;9.20;6.88;;;;;;;7.80;40.62;102097.75;5096595;28;20047;-63
2022/03/09 02:29:00;;;;;;;12.55;6.45;;;;;;;7.79;40.74;102098.75;5102512;28;20387;-60
2022/03/09 02:31:28;;;;;;;8.50;6.25;;;;;;;7.77;40.85;102098.09;5101034;28;20460;-61
2022/03/09 02:33:56;;;;;;;8.88;6.22;;;;;;;7.77;40.60;102097.25;5102420;28;20120;-62
2022/03/09 02:36:23;;;;;;;11.70;6.47;;;;;;;7.73;40.70;102090.59;5102552;28;20043;-62
2022/03/09 02:38:51;;;;;;;9.35;5.97;;;;;;;7.73;40.94;102095.94;5099576;28;20076;-62
2022/03/09 02:41:20;;;;;;;9.70;6.38;;;;;;;7.73;40.89;102087.91;5101633;28;20377;-62
2022/03/09 02:43:48;;;;;;;8.93;6.30;;;;;;;7.71;40.41;102088.06;5095413;28;20465;-61
2022/03/09 02:46:16;;;;;;;9.13;6.53;;;;;;;7.70;40.90;102088.25;5102681;28;20109;-62
2022/03/09 02:48:45;;;;;;;9.52;6.78;;;;;;;7.68;41.27;102092.94;5099063;28;20043;-62
2022/03/09 02:51:12;;;;;;;10.93;6.03;;;;;;;7.67;40.68;102088.59;5102302;28;20062;-61
2022/03/09 02:53:40;;;;;;;8.68;6.03;;;;;;;7.66;40.85;102089.59;5101894;28;20497;-60
2022/03/09 02:56:08;;;;;;;9.43;6.32;;;;;;;7.62;41.10;102077.56;5100972;28;20072;-61
2022/03/09 02:58:38;;;;;;;14.50;7.25;;;;;;;7.61;40.84;102083.94;5097385;28;20163;-62
2022/03/09 03:01:07;;;;;;;9.98;6.43;;;;;;;7.61;41.24;102078.59;5102104;28;20071;-61
2022/03/09 03:03:35;;;;;;;10.10;7.15;;;;;;;7.54;40.67;102075.75;5099808;28;20497;-61
2022/03/09 03:06:03;;;;;;;10.70;6.53;;;;;;;7.54;41.28;102073.09;5102740;28;20043;-61
2022/03/09 03:08:33;;;;;;;11.77;6.40;;;;;;;7.53;40.88;102071.41;5098448;28;20040;-61
2022/03/09 03:11:01;;;;;;;10.55;6.22;;;;;;;7.53;41.15;102086.63;5101856;28;20066;-62
2022/03/09 03:13:29;;;;;;;13.55;7.60;;;;;;;7.48;41.02;102074.59;5100190;28;20375;-61
2022/03/09 03:15:58;;;;;;;10.75;6.60;;;;;;;7.49;41.35;102080.78;5096161;28;20402;-61
2022/03/09 03:18:26;;;;;;;9.15;6.88;;;;;;;7.47;40.87;102080.97;5102127;28;20070;-62
2022/03/09 03:20:55;;;;;;;9.50;6.50;;;;;;;7.45;40.90;102082.97;5094501;28;20051;-61
2022/03/09 03:23:23;;;;;;;12.13;7.05;;;;;;;7.44;41.58;102088.50;5105504;28;20062;-63
2022/03/09 03:25:51;;;;;;;15.80;6.78;;;;;;;7.42;41.15;102088.66;5105865;28;20076;-61
2022/03/09 03:28:19;;;;;;;11.25;6.50;;;;;;;7.40;40.99;102081.81;5100835;28;20083;-61
2022/03/09 03:30:51;;;;;;;8.80;5.88;;;;;;;7.39;40.92;102082.81;5104524;28;20044;-63
2022/03/09 03:33:21;;;;;;;10.38;6.32;;;;;;;7.38;41.01;102081.16;5104918;28;20052;-62
2022/03/09 03:35:52;;;;;;;10.85;6.57;;;;;;;7.37;41.20;102074.97;5105918;28;20535;-62
2022/03/09 03:38:20;;;;;;;12.50;8.13;;;;;;;7.34;41.52;102074.47;5103824;28;20063;-62
2022/03/09 03:40:48;;;;;;;9.48;6.05;;;;;;;7.33;41.10;102078.16;5101420;28;20040;-60
2022/03/09 03:43:16;;;;;;;10.13;6.35;;;;;;;7.32;41.25;102074.66;5103255;28;20036;-62
2022/03/09 03:45:44;;;;;;;10.10;6.25;;;;;;;7.30;40.97;102081.16;5106235;28;20059;-61
2022/03/09 03:48:14;;;;;;;9.43;6.30;;;;;;;7.24;41.48;102074.66;5102413;28;20087;-61
2022/03/09 03:50:43;;;;;;;10.40;6.47;;;;;;;7.16;41.39;102053.28;5105183;28;20044;-62
2022/03/09 03:53:10;;;;;;;12.38;6.45;;;;;;;7.25;41.16;102076.31;5104987;28;20064;-61
2022/03/09 03:55:38;;;;;;;10.15;6.72;;;;;;;7.22;41.08;102075.84;5102873;28;20052;-62
2022/03/09 03:58:06;;;;;;;11.15;6.78;;;;;;;7.22;41.23;102081.19;5103238;28;20097;-60
2022/03/09 04:00:34;;;;;;;10.50;6.47;;;;;;;7.21;41.02;102088.38;5105304;28;20044;-62
2022/03/09 04:03:02;;;;;;;10.85;6.25;;;;;;;7.18;41.42;102084.19;5104970;28;20069;-60
2022/03/09 04:05:30;;;;;;;13.48;7.40;;;;;;;7.17;41.21;102093.22;5101740;28;20078;-62
2022/03/09 04:08:03;;;;;;;9.57;6.50;;;;;;;7.15;41.51;102086.38;5100682;28;20383;-61
2022/03/09 04:10:30;;;;;;;14.02;6.32;;;;;;;7.13;41.71;102083.88;5104751;28;20063;-61
2022/03/09 04:13:00;;;;;;;10.02;5.90;;;;;;;7.13;41.27;102086.53;5103478;28;20072;-62
2022/03/09 04:15:28;;;;;;;15.10;6.63;;;;;;;7.11;41.67;102088.53;5105090;28;20062;-60
2022/03/09 04:17:56;;;;;;;14.98;7.47;;;;;;;7.11;41.31;102090.38;5101952;28;20048;-62
2022/03/09 04:20:23;;;;;;;10.65;6.70;;;;;;;7.10;41.43;102094.06;5097622;28;20048;-62
2022/03/09 04:22:51;;;;;;;8.63;5.93;;;;;;;7.08;41.48;102094.22;5105002;28;20040;-61
2022/03/09 04:25:20;;;;;;;10.48;6.80;;;;;;;7.07;41.55;102089.88;5104973;28;21332;-61
2022/03/09 04:27:48;;;;;;;11.63;7.60;;;;;;;7.04;41.35;102087.53;5102996;28;20040;-61
2022/03/09 04:30:16;;;;;;;10.23;6.88;;;;;;;7.05;41.41;102083.03;5104745;28;20051;-61
2022/03/09 04:32:44;;;;;;;9.15;6.50;;;;;;;6.96;41.66;102068.84;5097958;28;20098;-61
2022/03/09 04:35:14;;;;;;;11.40;6.93;;;;;;;7.02;41.62;102078.03;5104197;28;20100;-61
2022/03/09 04:37:42;;;;;;;9.52;6.45;;;;;;;7.01;41.25;102079.88;5103618;28;20497;-61
2022/03/09 04:40:11;;;;;;;12.57;7.32;;;;;;;6.99;41.69;102073.84;5104341;28;20044;-61
2022/03/09 04:42:40;;;;;;;9.55;6.47;;;;;;;6.96;41.17;102074.19;5103679;28;20058;-61
2022/03/09 04:45:11;;;;;;;9.82;6.15;;;;;;;6.83;41.40;102053.34;5102278;28;20048;-61
2022/03/09 04:47:39;;;;;;;9.00;6.65;;;;;;;6.95;41.45;102069.00;5103308;28;20079;-61
2022/03/09 04:50:07;;;;;;;14.80;7.00;;;;;;;6.94;41.73;102072.69;5104589;28;20048;-61
2022/03/09 04:52:35;;;;;;;10.00;6.65;;;;;;;6.89;41.62;102072.38;5104111;28;20093;-61
2022/03/09 04:55:03;;;;;;;11.25;6.35;;;;;;;6.91;41.88;102073.88;5094702;28;20503;-61
2022/03/09 04:57:31;;;;;;;10.60;7.18;;;;;;;6.89;41.80;102075.91;5100046;28;20071;-61
2022/03/09 05:00:00;;;;;;;9.95;6.70;;;;;;;6.89;41.69;102077.72;5104429;28;20059;-61
2022/03/09 05:02:30;;;;;;;10.25;6.82;;;;;;;6.86;41.88;102070.88;5104050;28;20121;-61
2022/03/09 05:04:58;;;;;;;12.55;6.63;;;;;;;6.83;41.69;102072.06;5101855;28;20505;-62
2022/03/09 05:07:25;;;;;;;12.98;6.70;;;;;;;6.83;41.65;102072.06;5103980;28;20071;-62
2022/03/09 05:09:53;;;;;;;10.68;7.43;;;;;;;6.82;41.79;102077.56;5104270;28;20059;-60
2022/03/09 05:12:21;;;;;;;11.38;7.00;;;;;;;6.81;41.89;102067.88;5102571;28;20044;-63
2022/03/09 05:14:49;;;;;;;13.07;6.88;;;;;;;6.78;41.95;102069.03;5101317;28;20532;-62
2022/03/09 05:17:18;;;;;;;10.07;6.43;;;;;;;6.77;41.96;102083.41;5102823;28;20086;-62
2022/03/09 05:19:45;;;;;;;10.60;6.82;;;;;;;6.75;41.79;102080.06;5100881;28;20165;-61
2022/03/09 05:22:13;;;;;;;17.20;7.30;;;;;;;6.75;42.02;102079.22;5103861;28;20055;-61
2022/03/09 05:24:51;;;;;;;12.07;7.38;;;;;;;6.70;41.78;102074.38;5098586;28;20135;-61
2022/03/09 05:27:19;;;;;;;10.95;6.32;;;;;;;6.71;41.86;102075.22;5102523;28;20044;-60
2022/03/09 05:29:47;;;;;;;12.90;6.60;;;;;;;6.70;42.15;102076.22;5102487;28;20064;-61
2022/03/09 05:32:15;;;;;;;9.55;6.45;;;;;;;6.69;42.14;102082.56;5102988;28;20052;-60
2022/03/09 05:34:46;;;;;;;16.30;6.47;;;;;;;6.67;42.03;102079.22;5103275;28;20051;-61
2022/03/09 05:37:14;;;;;;;11.65;6.80;;;;;;;6.67;41.85;102087.25;5099487;28;20078;-62
2022/03/09 05:39:42;;;;;;;12.23;6.30;;;;;;;6.65;42.03;102086.56;5102452;28;20044;-61
2022/03/09 05:42:10;;;;;;;11.93;7.00;;;;;;;6.64;41.91;102093.75;5098882;28;20063;-61
2022/03/09 05:44:38;;;;;;;9.93;6.72;;;;;;;6.63;41.88;102085.91;5098652;28;20119;-60
2022/03/09 05:47:06;;;;;;;9.23;6.45;;;;;;;6.61;41.86;102094.06;5102622;28;20139;-64
2022/03/09 05:49:34;;;;;;;12.40;7.10;;;;;;;6.58;42.31;102099.75;5102939;28;20071;-62
2022/03/09 05:52:04;;;;;;;13.65;6.05;;;;;;;6.58;41.99;102099.75;5098332;28;20052;-61
2022/03/09 05:54:32;;;;;;;10.25;6.78;;;;;;;6.57;42.03;102092.75;5102249;28;20066;-60
2022/03/09 05:57:00;;;;;;;10.27;6.60;;;;;;;6.56;41.99;102098.25;5097677;28;20462;-60
2022/03/09 05:59:28;;;;;;;11.52;6.80;;;;;;;6.53;42.00;102108.25;5101823;28;20048;-60
2022/03/09 06:01:55;;;;;;;13.25;7.00;;;;;;;6.53;42.03;102107.41;5102877;28;20051;-59
2022/03/09 06:04:23;;;;;;;10.05;6.75;;;;;;;6.62;42.14;102111.78;5100722;28;20482;-60
2022/03/09 06:06:51;;;;;;;11.02;6.47;;;;;;;6.68;42.26;102110.28;5102655;28;20048;-60
2022/03/09 06:09:20;;;;;;;10.05;7.13;;;;;;;6.72;41.86;102115.13;5102693;28;20220;-59
2022/03/09 06:11:49;;;;;;;11.73;7.13;;;;;;;6.72;41.65;102111.63;5101034;28;20044;-60
2022/03/09 06:14:17;;;;;;;12.90;6.93;;;;;;;6.69;41.84;102112.78;5103001;28;20083;-61
2022/03/09 06:16:47;;;;;;;10.98;6.40;;;;;;;6.66;42.05;102120.28;5099861;28;20071;-60
2022/03/09 06:19:16;;;;;;;12.93;6.97;;;;;;;6.68;41.83;102123.63;5102305;28;20074;-60
2022/03/09 06:21:43;;;;;;;10.90;6.95;;;;;;;6.79;41.57;102116.13;5096234;28;20122;-60
2022/03/09 06:24:12;;;;;;;9.75;6.43;;;;;;;6.83;41.52;102119.31;5102766;28;20040;-61
2022/03/09 06:26:41;;;;;;;10.13;6.32;;;;;;;6.75;41.37;102104.09;5099216;28;20055;-60
2022/03/09 06:29:10;;;;;;;10.55;6.75;;;;;;;6.78;41.85;102125.16;5102535;28;20040;-61
2022/03/09 06:31:38;;;;;;;11.77;6.35;;;;;;;6.74;41.57;102123.81;5102194;28;20571;-61
2022/03/09 06:34:06;;;;;;;13.15;7.07;;;;;;;6.67;42.10;102119.28;5098960;28;20052;-62
2022/03/09 06:36:33;;;;;;;10.55;6.75;;;;;;;6.69;42.05;102128.81;5097242;28;20106;-60
2022/03/09 06:39:01;;;;;;;10.48;6.72;;;;;;;6.63;42.08;102132.16;5101037;28;20044;-62
2022/03/09 06:41:29;;;;;;;9.00;6.28;;;;;;;6.55;42.00;102121.44;5098761;28;20043;-63
2022/03/09 06:43:59;;;;;;;9.68;7.07;;;;;;;6.57;42.00;102138.16;5102855;28;20044;-63
2022/03/09 06:46:27;;;;;;;9.52;6.40;;;;;;;6.55;42.33;102139.31;5102643;28;20072;-62
2022/03/09 06:48:55;;;;;;;11.48;7.00;;;;;;;6.52;42.32;102143.97;5098303;28;20104;-63
2022/03/09 06:51:23;;;;;;;12.63;7.15;;;;;;;6.50;42.09;102151.31;5102152;28;20533;-63
2022/03/09 06:53:51;;;;;;;12.20;6.82;;;;;;;6.48;42.15;102157.81;5102843;28;20044;-63
2022/03/09 06:56:19;;;;;;;14.25;6.72;;;;;;;6.48;42.45;102160.50;5104635;28;20067;-63
2022/03/09 06:58:47;;;;;;;11.07;5.97;;;;;;;6.45;42.42;102163.47;5097310;28;20151;-59
2022/03/09 07:01:16;;;;;;;13.18;6.82;;;;;;;6.40;42.09;102157.78;5105953;28;20048;-59
2022/03/09 07:03:44;;;;;;;12.88;6.80;;;;;;;6.43;42.41;102163.66;5106562;28;20083;-60
2022/03/09 07:06:12;;;;;;;11.13;7.20;;;;;;;6.40;42.54;102158.63;5100135;28;20416;-60
2022/03/09 07:08:40;;;;;;;11.40;7.07;;;;;;;6.41;42.24;102160.31;5104678;28;20490;-60
2022/03/09 07:11:08;;;;;;;13.45;6.70;;;;;;;6.39;42.61;102167.63;5104696;28;20044;-59
2022/03/09 07:13:37;;;;;;;10.32;6.40;;;;;;;6.38;42.64;102162.47;5103565;28;20102;-58
2022/03/09 07:16:05;;;;;;;12.40;6.00;;;;;;;6.36;42.72;102170.63;5106575;28;20044;-60
2022/03/09 07:18:34;;;;;;;10.80;6.68;;;;;;;6.34;42.62;102169.97;5106346;28;20127;-59
2022/03/09 07:21:02;;;;;;;9.75;6.85;;;;;;;6.32;42.46;102169.28;5106372;28;20055;-60
2022/03/09 07:23:30;;;;;;;11.88;7.03;;;;;;;6.32;42.60;102173.78;5097804;28;20496;-60
2022/03/09 07:25:58;;;;;;;11.48;6.53;;;;;;;6.32;42.85;102174.63;5106459;28;20048;-60
2022/03/09 07:28:26;;;;;;;10.23;6.32;;;;;;;6.33;42.70;102180.78;5105039;28;20055;-61
2022/03/09 07:30:56;;;;;;;12.00;6.70;;;;;;;6.33;42.64;102175.47;5103169;28;20044;-61
2022/03/09 07:33:24;;;;;;;10.77;6.90;;;;;;;6.32;42.50;102173.78;5102967;28;20061;-60
2022/03/09 07:35:54;;;;;;;14.05;6.22;;;;;;;6.30;42.89;102175.78;5103050;28;20141;-60
2022/03/09 07:38:21;;;;;;;11.05;6.38;;;;;;;6.30;42.62;102170.44;5104982;28;20099;-59
2022/03/09 07:40:50;;;;;;;12.68;7.25;;;;;;;6.29;42.54;102174.09;5105437;28;20086;-60
2022/03/09 07:43:18;;;;;;;11.65;6.32;;;;;;;6.30;42.87;102173.13;5097371;28;20054;-60
2022/03/09 07:45:46;;;;;;;8.95;6.22;;;;;;;6.31;42.78;102175.63;5105840;28;20052;-59
2022/03/09 07:48:14;;;;;;;12.20;6.20;;;;;;;6.32;42.82;102174.63;5106036;28;20059;-59
2022/03/09 07:50:42;;;;;;;10.95;6.88;;;;;;;6.34;42.81;102171.78;5092467;28;20135;-59
2022/03/09 07:53:11;;;;;;;11.57;7.03;;;;;;;6.36;42.71;102177.81;5095189;28;20072;-59
2022/03/09 07:55:38;;;;;;;11.50;6.20;;;;;;;6.33;42.87;102170.97;5105599;28;20090;-59
2022/03/09 07:58:06;;;;;;;9.18;5.68;;;;;;;6.36;42.61;102178.66;5101989;28;20051;-59
2022/03/09 08:00:34;;;;;;;11.85;6.60;;;;;;;6.37;42.97;102179.47;5105669;28;20144;-58
2022/03/09 08:03:02;;;;;;;11.52;6.32;;;;;;;6.38;42.85;102176.66;5102752;28;20070;-59
2022/03/09 08:05:49;;;;;;;8.23;6.05;;;;;;;6.36;42.82;102167.97;5100562;28;20048;-58
2022/03/09 08:08:18;;;;;;;9.20;5.85;;;;;;;6.24;42.48;102147.06;5103063;28;20074;-58
2022/03/09 08:10:46;;;;;;;10.50;6.50;;;;;;;6.37;42.87;102172.31;5098059;28;20071;-60
2022/03/09 08:13:14;;;;;;;13.35;6.72;;;;;;;6.44;42.33;102173.34;5097978;28;20122;-59
2022/03/09 08:15:42;;;;;;;8.98;6.57;;;;;;;6.60;42.33;102183.22;5098191;28;20056;-58
2022/03/09 08:18:10;;;;;;;10.63;6.40;;;;;;;6.76;41.85;102193.94;5092733;28;20050;-60
2022/03/09 08:20:38;;;;;;;12.48;6.70;;;;;;;6.93;41.69;102197.50;5104403;28;20044;-60
2022/03/09 08:23:06;;;;;;;9.73;6.07;;;;;;;7.07;41.34;102204.81;5104488;28;20078;-60
2022/03/09 08:25:35;;;;;;;10.27;6.00;;;;;;;7.23;40.99;102200.50;5098436;28;20044;-59
2022/03/09 08:28:02;;;;;;;8.55;5.55;;;;;;;7.42;40.56;102200.16;5104317;28;20048;-59
2022/03/09 08:30:30;;;;;;;12.50;5.72;;;;;;;7.56;40.38;102202.16;5098286;28;20343;-58
2022/03/09 08:32:58;;;;;;;9.48;6.90;;;;;;;7.68;40.30;102203.47;5093591;28;20135;-58
2022/03/09 08:35:31;;;;;;;10.48;6.50;;;;;;;7.74;39.95;102207.31;5099129;28;20049;-60
2022/03/09 08:37:58;;;;;;;8.60;5.65;;;;;;;7.67;40.60;102192.94;5102051;28;20052;-61
2022/03/09 08:40:26;;;;;;;9.57;5.95;;;;;;;7.59;40.52;102195.63;5094256;28;20055;-60
2022/03/09 08:42:55;;;;;;;13.70;6.80;;;;;;;7.45;40.97;102191.78;5104456;28;20044;-60
2022/03/09 08:45:23;;;;;;;14.13;6.40;;;;;;;7.34;41.27;102202.84;5102920;28;20040;-59
2022/03/09 08:47:51;;;;;;;11.55;5.32;;;;;;;7.25;41.62;102202.00;5105134;28;20101;-59
2022/03/09 08:50:19;;;;;;;11.27;6.70;;;;;;;7.21;41.93;102197.16;5104527;28;20497;-59
2022/03/09 08:53:07;;;;;;;9.07;6.05;;;;;;;7.15;41.94;102210.19;5102662;28;20054;-58
2022/03/09 08:55:35;;;;;;;11.82;5.93;;;;;;;7.12;42.03;102213.19;5104615;28;20040;-59
2022/03/09 08:58:05;;;;;;;9.65;6.43;;;;;;;7.10;42.67;102204.50;5103831;28;20060;-59
2022/03/09 09:00:33;;;;;;;11.10;6.20;;;;;;;7.07;42.32;102198.66;5102942;28;20051;-60
2022/03/09 09:03:01;;;;;;;10.40;6.10;;;;;;;7.07;42.41;102204.00;5103684;28;20075;-59
2022/03/09 09:05:29;;;;;;;9.55;5.80;;;;;;;7.04;42.56;102199.81;5099300;28;20108;-60
2022/03/09 09:07:57;;;;;;;9.68;5.22;;;;;;;7.03;42.61;102199.97;5101068;28;20051;-59
2022/03/09 09:10:33;;;;;;;9.48;5.88;;;;;;;7.04;42.64;102201.66;5102795;28;20146;-61
2022/03/09 09:13:00;;;;;;;9.25;6.40;;;;;;;7.02;42.80;102207.16;5100985;28;20048;-59
2022/03/09 09:15:29;;;;;;;10.52;6.35;;;;;;;7.02;43.03;102201.81;5103701;28;20040;-59
2022/03/09 09:17:58;;;;;;;9.85;5.90;;;;;;;7.03;43.04;102206.16;5103426;28;20074;-60
2022/03/09 09:20:45;;;;;;;8.52;5.60;;;;;;;7.02;43.38;102204.47;5091996;28;20048;-59
2022/03/09 09:23:13;;;;;;;11.15;5.82;;;;;;;7.03;43.59;102205.31;5100061;28;20048;-60
2022/03/09 09:25:44;;;;;;;9.10;5.50;;;;;;;7.05;43.66;102197.97;5103258;28;20093;-60
2022/03/09 09:28:12;;;;;;;11.75;6.03;;;;;;;7.08;43.71;102192.28;5101996;28;20067;-59
2022/03/09 09:30:42;;;;;;;9.65;5.82;;;;;;;7.08;43.74;102194.97;5093823;28;20048;-60
2022/03/09 09:33:10;;;;;;;13.35;6.43;;;;;;;7.13;44.11;102196.16;5099706;28;20044;-61
2022/03/09 09:35:38;;;;;;;11.73;6.10;;;;;;;7.13;43.99;102196.16;5103618;28;20070;-64
2022/03/09 09:38:09;;;;;;;11.48;6.75;;;;;;;7.15;44.68;102193.31;5101964;28;20047;-63
2022/03/09 09:40:43;;;;;;;11.40;6.13;;;;;;;7.17;44.64;102197.47;5091400;28;20048;-62
2022/03/09 09:43:12;;;;;;;11.77;5.78;;;;;;;7.19;44.80;102198.16;5103473;28;20048;-63
2022/03/09 09:45:42;;;;;;;10.73;6.88;;;;;;;7.22;45.03;102196.16;5103717;28;20043;-61
2022/03/09 09:48:11;;;;;;;10.95;6.32;;;;;;;7.23;45.16;102195.97;5098393;28;20051;-61
2022/03/09 09:50:40;;;;;;;9.75;6.20;;;;;;;7.27;44.83;102202.66;5100182;28;20067;-62
2022/03/09 09:53:12;;;;;;;10.82;6.60;;;;;;;7.24;44.82;102188.78;5101515;28;20044;-62
2022/03/09 09:55:41;;;;;;;9.10;6.10;;;;;;;7.21;45.15;102175.75;5094683;28;20528;-62
2022/03/09 09:58:09;;;;;;;8.95;6.07;;;;;;;7.38;46.31;102201.50;5101375;28;20051;-62
2022/03/09 10:00:37;;;;;;;10.38;5.80;;;;;;;7.42;45.34;102192.13;5100000;28;20095;-61
2022/03/09 10:03:06;;;;;;;10.50;6.00;;;;;;;7.42;45.52;102197.47;5102929;28;20080;-62
2022/03/09 10:05:34;;;;;;;12.63;6.53;;;;;;;7.44;45.58;102192.81;5103023;28;20044;-62
2022/03/09 10:08:17;;;;;;;14.27;7.15;;;;;;;7.45;45.86;102191.78;5097782;28;20378;-65
2022/03/09 10:10:55;;;;;;;14.70;6.60;;;;;;;7.48;45.76;102194.97;5102554;28;20048;-62
2022/03/09 10:13:24;;;;;;;17.70;6.80;;;;;;;7.53;45.55;102198.97;5099322;28;20044;-63
2022/03/09 10:16:10;;;;;;;9.88;6.47;;;;;;;7.56;45.93;102199.47;5103067;28;20048;-62
2022/03/09 10:18:40;;;;;;;15.80;7.65;;;;;;;7.59;45.88;102184.94;5102914;28;20044;-64
2022/03/09 10:21:11;;;;;;;14.25;7.43;;;;;;;7.60;45.68;102189.28;5093958;28;20454;-63
2022/03/09 10:23:53;;;;;;;12.70;6.75;;;;;;;7.59;46.12;102179.56;5102243;28;20048;-63
2022/03/09 10:26:23;;;;;;;11.77;7.05;;;;;;;7.65;46.28;102185.09;5102792;28;20052;-63
2022/03/09 10:29:03;;;;;;;16.25;7.28;;;;;;;7.66;46.29;102180.56;5100036;28;20044;-64
2022/03/09 10:31:35;;;;;;;14.15;7.68;;;;;;;7.70;45.87;102184.56;5099760;28;20117;-63
2022/03/09 10:34:11;;;;;;;12.02;7.38;;;;;;;7.74;46.43;102178.72;5101219;28;20083;-64
2022/03/09 10:36:54;;;;;;;14.73;7.72;;;;;;;7.77;46.29;102173.03;5086750;28;20044;-63
2022/03/09 10:39:23;;;;;;;13.65;6.93;;;;;;;7.83;46.60;102176.84;5099665;28;20055;-63
2022/03/09 10:41:51;;;;;;;14.38;8.32;;;;;;;7.88;46.50;102176.34;5100917;28;20044;-62
2022/03/09 10:44:19;;;;;;;14.27;7.45;;;;;;;7.90;46.66;102179.69;5101635;28;20151;-62
2022/03/09 10:46:48;;;;;;;16.25;7.75;;;;;;;7.95;47.06;102178.16;5098176;28;20044;-63
2022/03/09 10:49:19;;;;;;;14.55;8.02;;;;;;;8.06;47.04;102174.28;5096470;28;20048;-63
2022/03/09 10:51:50;;;;;;;15.30;7.95;;;;;;;8.12;46.45;102177.09;5095611;28;20438;-62
2022/03/09 10:54:23;;;;;;;14.40;8.48;;;;;;;8.15;47.26;102174.06;5100830;28;20078;-61
2022/03/09 10:57:02;;;;;;;17.98;8.15;;;;;;;8.19;46.72;102171.88;5096609;28;20043;-62
2022/03/09 10:59:42;;;;;;;14.13;7.80;;;;;;;8.21;46.65;102180.59;5102575;28;20052;-62
2022/03/09 11:02:13;;;;;;;14.63;8.45;;;;;;;8.25;46.62;102170.34;5088191;28;20140;-67
2022/03/09 11:04:42;;;;;;;14.40;8.63;;;;;;;8.27;47.02;102173.69;5102670;28;20059;-64
2022/03/09 11:07:12;;;;;;;15.23;8.07;;;;;;;8.31;47.21;102175.84;5100599;28;20086;-68
2022/03/09 11:09:48;;;;;;;15.40;7.97;;;;;;;8.36;47.01;102176.19;5102345;28;20167;-63
2022/03/09 11:12:16;;;;;;;14.35;8.48;;;;;;;8.38;47.33;102179.53;5097050;28;20044;-63
2022/03/09 11:14:44;;;;;;;13.90;8.50;;;;;;;8.42;46.75;102177.34;5106302;28;20073;-63
2022/03/09 11:17:16;;;;;;;16.70;9.25;;;;;;;8.46;46.71;102170.63;5101990;28;20040;-63
2022/03/09 11:19:46;;;;;;;17.63;9.50;;;;;;;8.48;47.40;102174.78;5102233;28;20052;-63
2022/03/09 11:22:17;;;;;;;15.00;8.73;;;;;;;8.54;46.70;102177.78;5100495;28;20082;-63
2022/03/09 11:24:45;;;;;;;15.73;8.20;;;;;;;8.55;47.88;102172.25;5102134;28;20091;-64
2022/03/09 11:27:14;;;;;;;17.05;9.30;;;;;;;8.59;47.22;102170.88;5099412;28;20358;-64
2022/03/09 11:29:43;;;;;;;13.35;7.93;;;;;;;8.61;47.15;102155.47;5100957;28;20044;-64
2022/03/09 11:32:14;;;;;;;15.93;8.80;;;;;;;8.64;47.39;102156.97;5101408;28;20044;-64
2022/03/09 11:34:43;;;;;;;15.10;9.35;;;;;;;8.71;46.91;102152.53;5101862;28;20374;-64
2022/03/09 11:37:15;;;;;;;13.98;8.15;;;;;;;8.73;47.24;102150.50;5095718;28;20059;-62
2022/03/09 11:39:44;;;;;;;15.73;8.68;;;;;;;8.76;47.50;102150.16;5093580;28;20067;-63